createdAt,value
2023-04-13T00:00:36.912Z,7.80
2023-04-13T00:06:42.930Z,7.80
2023-04-13T00:09:09.746Z,7.90
2023-04-13T00:11:38.711Z,7.80
2023-04-13T00:14:06.673Z,7.80
2023-04-13T00:16:33.671Z,7.80
2023-04-13T00:19:02.419Z,7.80
2023-04-13T00:21:29.138Z,7.70
2023-04-13T00:23:56.364Z,7.60
2023-04-13T00:26:25.745Z,7.60
2023-04-13T00:28:52.575Z,7.60
2023-04-13T00:31:19.463Z,7.50
2023-04-13T00:33:46.554Z,7.50
2023-04-13T00:36:13.476Z,7.50
2023-04-13T00:38:44.927Z,7.50
2023-04-13T00:41:13.042Z,7.50
2023-04-13T00:43:39.835Z,7.40
2023-04-13T00:46:07.218Z,7.40
2023-04-13T00:48:35.125Z,7.50
2023-04-13T00:51:03.663Z,7.50
2023-04-13T00:53:31.857Z,7.50
2023-04-13T00:55:58.716Z,7.40
2023-04-13T00:58:27.674Z,7.40
2023-04-13T01:00:54.475Z,7.40
2023-04-13T01:03:22.255Z,7.40
2023-04-13T01:06:17.892Z,7.40
2023-04-13T01:09:02.638Z,7.40
2023-04-13T01:11:41.489Z,7.30
2023-04-13T01:14:27.421Z,7.30
2023-04-13T01:16:57.491Z,7.20
2023-04-13T01:19:40.796Z,7.20
2023-04-13T01:22:12.618Z,7.10
2023-04-13T01:24:59.197Z,7.10
2023-04-13T01:27:47.962Z,7.10
2023-04-13T01:30:16.872Z,7.00
2023-04-13T01:32:45.738Z,7.00
2023-04-13T01:35:13.064Z,7.00
2023-04-13T01:37:43.268Z,6.90
2023-04-13T01:40:13.854Z,6.80
2023-04-13T01:42:42.470Z,6.70
2023-04-13T01:45:36.920Z,6.60
2023-04-13T01:48:42.390Z,6.50
2023-04-13T01:51:23.068Z,6.30
2023-04-13T01:54:02.671Z,6.20
2023-04-13T01:56:29.784Z,6.10
2023-04-13T01:59:00.817Z,6.00
2023-04-13T02:01:27.681Z,6.00
2023-04-13T02:03:54.993Z,5.90
2023-04-13T02:06:21.892Z,5.80
2023-04-13T02:08:50.509Z,5.70
2023-04-13T02:11:19.243Z,5.70
2023-04-13T02:13:46.240Z,5.60
2023-04-13T02:16:13.047Z,5.60
2023-04-13T02:18:41.163Z,5.50
2023-04-13T02:21:09.447Z,5.50
2023-04-13T02:23:37.536Z,5.40
2023-04-13T02:26:06.794Z,5.30
2023-04-13T02:28:34.523Z,5.30
2023-04-13T02:31:02.796Z,5.20
2023-04-13T02:33:32.831Z,5.20
2023-04-13T02:36:02.142Z,5.10
2023-04-13T02:38:29.423Z,5.10
2023-04-13T02:41:00.610Z,5.00
2023-04-13T02:43:28.763Z,5.00
2023-04-13T02:45:56.622Z,4.90
2023-04-13T02:48:23.709Z,4.80
2023-04-13T02:50:52.139Z,4.70
2023-04-13T02:53:19.257Z,4.60
2023-04-13T02:55:47.584Z,4.60
2023-04-13T02:58:14.656Z,4.50
2023-04-13T03:00:41.442Z,4.50
2023-04-13T03:03:09.028Z,4.40
2023-04-13T03:05:36.022Z,4.40
2023-04-13T03:08:05.202Z,4.30
2023-04-13T03:10:32.084Z,4.30
2023-04-13T03:12:59.044Z,4.20
2023-04-13T03:15:58.216Z,4.20
2023-04-13T03:18:25.042Z,4.20
2023-04-13T03:20:52.324Z,4.10
2023-04-13T03:23:19.752Z,4.10
2023-04-13T03:25:46.556Z,4.10
2023-04-13T03:28:13.358Z,4.00
2023-04-13T03:30:40.134Z,4.00
2023-04-13T03:33:06.849Z,4.00
2023-04-13T03:35:33.642Z,4.00
2023-04-13T03:38:00.549Z,4.00
2023-04-13T03:40:27.532Z,4.00
2023-04-13T03:42:54.294Z,4.00
2023-04-13T03:45:21.107Z,4.00
2023-04-13T03:47:47.973Z,4.00
2023-04-13T03:50:14.869Z,4.00
2023-04-13T03:52:41.652Z,3.90
2023-04-13T03:55:11.845Z,3.90
2023-04-13T03:57:38.726Z,3.80
2023-04-13T04:00:11.050Z,3.80
2023-04-13T04:02:38.150Z,3.70
2023-04-13T04:05:05.828Z,3.60
2023-04-13T04:07:32.644Z,3.60
2023-04-13T04:09:59.418Z,3.60
2023-04-13T04:12:26.151Z,3.60
2023-04-13T04:14:52.863Z,3.50
2023-04-13T04:17:19.698Z,3.50
2023-04-13T04:19:46.578Z,3.50
2023-04-13T04:22:14.051Z,3.50
2023-04-13T04:24:42.443Z,3.50
2023-04-13T04:27:09.281Z,3.50
2023-04-13T04:29:36.209Z,3.50
2023-04-13T04:32:05.732Z,3.50
2023-04-13T04:34:32.867Z,3.50
2023-04-13T04:37:03.077Z,3.50
2023-04-13T04:39:33.072Z,3.50
2023-04-13T04:42:07.542Z,3.50
2023-04-13T04:44:34.496Z,3.50
2023-04-13T04:47:02.796Z,3.50
2023-04-13T04:49:29.797Z,3.40
2023-04-13T04:51:57.536Z,3.50
2023-04-13T04:54:24.945Z,3.40
2023-04-13T04:56:51.938Z,3.50
2023-04-13T04:59:19.742Z,3.50
2023-04-13T05:01:47.256Z,3.50
2023-04-13T05:04:14.220Z,3.60
2023-04-13T05:06:41.653Z,3.60
2023-04-13T05:09:09.000Z,3.60
2023-04-13T05:11:36.578Z,3.70
2023-04-13T05:14:03.556Z,3.80
2023-04-13T05:16:31.914Z,3.80
2023-04-13T05:18:59.126Z,3.90
2023-04-13T05:21:27.116Z,4.00
2023-04-13T05:23:53.972Z,4.00
2023-04-13T05:26:20.809Z,4.00
2023-04-13T05:28:47.615Z,4.10
2023-04-13T05:31:15.800Z,4.20
2023-04-13T05:33:42.644Z,4.30
2023-04-13T05:36:09.838Z,4.40
2023-04-13T05:38:36.641Z,4.40
2023-04-13T05:41:03.538Z,4.50
2023-04-13T05:43:30.555Z,4.60
2023-04-13T05:45:57.362Z,4.60
2023-04-13T05:48:24.508Z,4.60
2023-04-13T05:50:51.398Z,4.60
2023-04-13T05:53:18.336Z,4.60
2023-04-13T05:55:48.006Z,4.60
2023-04-13T05:58:15.226Z,4.60
2023-04-13T06:00:43.145Z,4.70
2023-04-13T06:03:11.308Z,4.70
2023-04-13T06:05:38.902Z,4.80
2023-04-13T06:08:10.448Z,4.90
2023-04-13T06:10:37.273Z,5.00
2023-04-13T06:13:04.141Z,5.00
2023-04-13T06:15:31.866Z,5.10
2023-04-13T06:17:58.698Z,5.20
2023-04-13T06:20:25.533Z,5.40
2023-04-13T06:22:52.277Z,5.60
2023-04-13T06:25:19.532Z,5.80
2023-04-13T06:27:48.530Z,6.20
2023-04-13T06:30:15.847Z,6.50
2023-04-13T06:32:43.116Z,6.90
2023-04-13T06:35:10.917Z,7.40
2023-04-13T06:37:38.235Z,7.80
2023-04-13T06:40:16.049Z,8.20
2023-04-13T06:42:43.599Z,8.60
2023-04-13T06:45:11.860Z,8.90
2023-04-13T06:47:41.045Z,9.30
2023-04-13T06:50:10.277Z,9.80
2023-04-13T06:52:37.735Z,10.20
2023-04-13T06:55:05.501Z,10.40
2023-04-13T06:57:32.869Z,10.50
2023-04-13T06:59:59.836Z,11.00
2023-04-13T07:02:27.277Z,11.00
2023-04-13T07:04:54.380Z,11.00
2023-04-13T07:07:21.274Z,11.30
2023-04-13T07:09:48.003Z,11.70
2023-04-13T07:12:14.741Z,11.70
2023-04-13T07:14:42.155Z,11.40
2023-04-13T07:17:10.180Z,11.40
2023-04-13T07:19:38.895Z,11.80
2023-04-13T07:22:05.670Z,12.10
2023-04-13T07:24:36.033Z,12.30
2023-04-13T07:27:03.097Z,12.80
2023-04-13T07:29:29.920Z,13.10
2023-04-13T07:32:05.845Z,13.70
2023-04-13T07:34:32.923Z,14.20
2023-04-13T07:36:59.669Z,14.80
2023-04-13T07:39:27.809Z,14.90
2023-04-13T07:41:54.690Z,14.10
2023-04-13T07:44:21.516Z,13.40
2023-04-13T07:46:48.345Z,13.10
2023-04-13T07:49:15.188Z,12.90
2023-04-13T07:51:41.993Z,12.90
2023-04-13T07:54:08.768Z,13.10
2023-04-13T07:56:36.209Z,13.30
2023-04-13T07:59:03.644Z,13.40
2023-04-13T08:01:31.025Z,13.10
2023-04-13T08:03:57.961Z,12.90
2023-04-13T08:06:24.948Z,12.60
2023-04-13T08:08:53.184Z,12.40
2023-04-13T08:11:20.044Z,12.40
2023-04-13T08:13:46.923Z,12.30
2023-04-13T08:16:14.047Z,12.20
2023-04-13T08:18:40.917Z,12.10
2023-04-13T08:21:14.793Z,12.20
2023-04-13T08:23:44.576Z,12.40
2023-04-13T08:26:18.940Z,13.00
2023-04-13T08:28:47.996Z,13.50
2023-04-13T08:31:15.867Z,14.20
2023-04-13T08:33:43.742Z,13.80
2023-04-13T08:36:10.785Z,13.60
2023-04-13T08:38:37.758Z,13.40
2023-04-13T08:41:04.883Z,13.10
2023-04-13T08:43:37.060Z,12.70
2023-04-13T08:46:05.795Z,13.00
2023-04-13T08:48:42.685Z,13.30
2023-04-13T08:51:18.117Z,13.50
2023-04-13T08:53:44.971Z,13.90
2023-04-13T08:56:15.482Z,15.10
2023-04-13T08:58:43.909Z,15.80
2023-04-13T09:01:14.082Z,16.70
2023-04-13T09:04:10.500Z,17.60
2023-04-13T09:06:41.123Z,18.50
2023-04-13T09:09:16.989Z,19.00
2023-04-13T09:11:46.789Z,18.70
2023-04-13T09:14:20.171Z,19.20
2023-04-13T09:16:48.407Z,19.50
2023-04-13T09:19:15.360Z,19.70
2023-04-13T09:21:44.759Z,19.80
2023-04-13T09:24:12.778Z,19.70
2023-04-13T09:26:44.828Z,19.80
2023-04-13T09:29:15.021Z,20.10
2023-04-13T09:31:43.712Z,20.70
2023-04-13T09:34:12.702Z,21.20
2023-04-13T09:36:52.846Z,21.70
2023-04-13T09:39:28.402Z,21.50
2023-04-13T09:41:55.993Z,21.20
2023-04-13T09:44:28.537Z,19.60
2023-04-13T09:47:04.137Z,19.00
2023-04-13T09:52:01.984Z,17.20
2023-04-13T09:54:29.352Z,16.10
2023-04-13T09:56:57.370Z,15.40
2023-04-13T09:59:24.717Z,15.70
2023-04-13T10:01:52.363Z,17.20
2023-04-13T10:04:19.714Z,18.00
2023-04-13T10:06:50.125Z,17.30
2023-04-13T10:09:17.611Z,16.80
2023-04-13T10:11:51.399Z,16.60
2023-04-13T10:14:34.358Z,16.10
2023-04-13T10:17:28.409Z,15.90
2023-04-13T10:20:01.481Z,16.80
2023-04-13T10:22:29.386Z,16.70
2023-04-13T10:24:56.771Z,16.30
2023-04-13T10:27:27.069Z,17.40
2023-04-13T10:29:55.122Z,17.90
2023-04-13T10:32:27.189Z,17.90
2023-04-13T10:34:55.575Z,18.10
2023-04-13T10:37:28.642Z,17.60
2023-04-13T10:40:08.040Z,16.80
2023-04-13T10:42:52.482Z,16.50
2023-04-13T10:45:21.988Z,16.00
2023-04-13T10:47:49.016Z,15.40
2023-04-13T10:50:19.892Z,15.30
2023-04-13T10:52:56.121Z,15.10
2023-04-13T10:55:25.549Z,15.10
2023-04-13T10:57:52.426Z,15.70
2023-04-13T11:00:25.453Z,16.00
2023-04-13T11:02:58.261Z,15.80
2023-04-13T11:05:27.125Z,15.90
2023-04-13T11:07:55.803Z,17.20
2023-04-13T11:10:27.925Z,19.10
2023-04-13T11:12:58.871Z,19.50
2023-04-13T11:15:29.634Z,18.90
2023-04-13T11:17:59.073Z,18.70
2023-04-13T11:20:33.917Z,19.40
2023-04-13T11:23:03.499Z,19.10
2023-04-13T11:25:30.994Z,18.90
2023-04-13T11:28:00.735Z,18.50
2023-04-13T11:30:28.110Z,18.00
2023-04-13T11:32:58.410Z,17.10
2023-04-13T11:35:25.531Z,16.50
2023-04-13T11:37:55.221Z,16.00
2023-04-13T11:40:27.269Z,15.50
2023-04-13T11:42:58.859Z,15.20
2023-04-13T11:45:27.630Z,14.80
2023-04-13T11:47:56.084Z,14.50
2023-04-13T11:50:23.550Z,14.20
2023-04-13T11:52:56.758Z,13.80
2023-04-13T11:55:25.033Z,13.80
2023-04-13T11:57:53.372Z,13.60
2023-04-13T12:00:27.516Z,13.50
2023-04-13T12:03:02.951Z,13.40
2023-04-13T12:05:33.052Z,13.10
2023-04-13T12:08:02.608Z,12.90
2023-04-13T12:10:40.572Z,12.80
2023-04-13T12:13:20.106Z,12.80
2023-04-13T12:16:07.760Z,12.70
2023-04-13T12:18:47.062Z,12.60
2023-04-13T12:21:19.940Z,12.70
2023-04-13T12:23:55.064Z,12.80
2023-04-13T12:28:57.732Z,12.70
2023-04-13T12:31:25.115Z,12.80
2023-04-13T12:33:51.889Z,12.70
2023-04-13T12:36:18.760Z,12.80
2023-04-13T12:38:45.895Z,12.70
2023-04-13T12:41:12.834Z,12.60
2023-04-13T12:43:39.639Z,12.50
2023-04-13T12:46:06.365Z,12.40
2023-04-13T12:48:33.209Z,12.40
2023-04-13T12:51:00.078Z,12.30
2023-04-13T12:53:26.935Z,12.30
2023-04-13T12:55:53.660Z,12.20
2023-04-13T12:58:20.516Z,12.20
2023-04-13T13:00:47.397Z,12.10
2023-04-13T13:06:26.306Z,12.00
2023-04-13T13:08:53.086Z,11.90
2023-04-13T13:11:19.905Z,11.80
2023-04-13T13:13:46.640Z,11.80
2023-04-13T13:16:14.093Z,11.70
2023-04-13T13:19:00.830Z,11.60
2023-04-13T13:21:28.155Z,11.60
2023-04-13T13:23:55.028Z,11.60
2023-04-13T13:26:24.275Z,11.60
2023-04-13T13:28:52.081Z,11.60
2023-04-13T13:31:19.438Z,11.60
2023-04-13T13:33:46.521Z,11.60
2023-04-13T13:36:14.049Z,11.80
2023-04-13T13:38:42.781Z,12.50
2023-04-13T13:41:09.966Z,12.90
2023-04-13T13:43:37.421Z,13.20
2023-04-13T13:46:05.826Z,13.30
2023-04-13T13:48:32.743Z,13.30
2023-04-13T13:51:00.281Z,13.30
2023-04-13T13:53:27.132Z,13.40
2023-04-13T13:55:55.459Z,13.50
2023-04-13T13:58:22.400Z,13.50
2023-04-13T14:00:50.754Z,13.50
2023-04-13T14:03:17.837Z,13.70
2023-04-13T14:05:44.766Z,13.80
2023-04-13T14:08:11.801Z,14.10
2023-04-13T14:10:38.769Z,14.80
2023-04-13T14:13:06.209Z,15.50
2023-04-13T14:15:33.337Z,15.70
2023-04-13T14:18:09.014Z,16.10
2023-04-13T14:20:39.471Z,16.20
2023-04-13T14:23:07.003Z,16.70
2023-04-13T14:25:33.840Z,16.90
2023-04-13T14:28:00.924Z,17.50
2023-04-13T14:30:28.449Z,17.80
2023-04-13T14:32:56.588Z,18.00
2023-04-13T14:35:24.097Z,18.20
2023-04-13T14:37:51.356Z,18.40
2023-04-13T14:40:21.815Z,18.60
2023-04-13T14:42:50.964Z,18.90
2023-04-13T14:45:18.350Z,18.90
2023-04-13T14:47:45.258Z,18.90
2023-04-13T14:50:12.672Z,19.00
2023-04-13T14:52:39.753Z,19.20
2023-04-13T14:55:07.036Z,19.00
2023-04-13T14:57:33.813Z,18.10
2023-04-13T15:00:00.875Z,17.10
2023-04-13T15:02:30.843Z,16.30
2023-04-13T15:04:58.338Z,15.70
2023-04-13T15:07:29.689Z,15.20
2023-04-13T15:09:58.057Z,15.00
2023-04-13T15:16:12.669Z,14.60
2023-04-13T15:18:39.616Z,14.40
2023-04-13T15:21:09.307Z,14.20
2023-04-13T15:23:36.528Z,14.10
2023-04-13T15:26:03.516Z,14.10
2023-04-13T15:28:30.745Z,14.00
2023-04-13T15:30:57.592Z,14.00
2023-04-13T15:33:24.453Z,13.90
2023-04-13T15:35:52.644Z,13.90
2023-04-13T15:38:22.602Z,13.90
2023-04-13T15:40:49.365Z,13.80
2023-04-13T15:46:28.400Z,13.70
2023-04-13T15:48:56.159Z,13.70
2023-04-13T15:51:23.551Z,13.60
2023-04-13T15:53:50.576Z,13.50
2023-04-13T15:56:18.039Z,13.60
2023-04-13T15:58:48.125Z,13.60
2023-04-13T16:01:16.247Z,13.70
2023-04-13T16:03:49.142Z,13.80
2023-04-13T16:06:16.378Z,14.00
2023-04-13T16:08:43.421Z,14.10
2023-04-13T16:11:10.746Z,14.00
2023-04-13T16:13:49.382Z,14.00
2023-04-13T16:16:17.032Z,13.90
2023-04-13T16:18:52.962Z,13.90
2023-04-13T16:21:22.908Z,13.90
2023-04-13T16:23:53.376Z,13.80
2023-04-13T16:26:23.342Z,13.70
2023-04-13T16:28:52.478Z,13.70
2023-04-13T16:31:21.135Z,14.00
2023-04-13T16:33:49.459Z,14.40
2023-04-13T16:36:17.757Z,14.90
2023-04-13T16:38:48.678Z,15.30
2023-04-13T16:41:16.890Z,15.60
2023-04-13T16:43:43.728Z,15.70
2023-04-13T16:46:12.551Z,15.50
2023-04-13T16:48:39.741Z,15.30
2023-04-13T16:51:06.745Z,15.00
2023-04-13T16:53:33.564Z,14.90
2023-04-13T16:56:00.401Z,14.70
2023-04-13T16:58:27.275Z,14.50
2023-04-13T17:00:54.759Z,14.30
2023-04-13T17:03:23.403Z,14.10
2023-04-13T17:05:54.556Z,14.10
2023-04-13T17:11:06.057Z,13.90
2023-04-13T17:13:43.951Z,13.70
2023-04-13T17:16:13.546Z,13.50
2023-04-13T17:18:51.138Z,13.40
2023-04-13T17:21:22.089Z,13.20
2023-04-13T17:23:56.900Z,13.00
2023-04-13T17:26:26.681Z,12.90
2023-04-13T17:28:53.658Z,12.80
2023-04-13T17:31:27.193Z,12.70
2023-04-13T17:36:41.167Z,12.50
2023-04-13T17:39:09.827Z,12.40
2023-04-13T17:41:36.902Z,12.30
2023-04-13T17:44:05.641Z,12.20
2023-04-13T17:46:41.052Z,12.10
2023-04-13T17:49:08.163Z,12.00
2023-04-13T17:51:35.104Z,12.00
2023-04-13T17:54:02.194Z,11.80
2023-04-13T17:56:29.513Z,11.70
2023-04-13T17:58:59.547Z,11.60
2023-04-13T18:01:26.748Z,11.50
2023-04-13T18:03:53.784Z,11.40
2023-04-13T18:06:23.145Z,11.30
2023-04-13T18:08:51.302Z,11.20
2023-04-13T18:11:19.454Z,11.10
2023-04-13T18:13:46.721Z,11.00
2023-04-13T18:16:14.477Z,11.00
2023-04-13T18:18:41.540Z,10.90
2023-04-13T18:21:08.388Z,10.90
2023-04-13T18:23:35.334Z,10.80
2023-04-13T18:26:07.947Z,10.80
2023-04-13T18:28:36.996Z,10.70
2023-04-13T18:31:05.333Z,10.70
2023-04-13T18:33:32.133Z,10.60
2023-04-13T18:35:59.301Z,10.60
2023-04-13T18:38:27.635Z,10.50
2023-04-13T18:40:56.659Z,10.50
2023-04-13T18:43:23.702Z,10.40
2023-04-13T18:45:50.725Z,10.30
2023-04-13T18:48:21.441Z,10.30
2023-04-13T18:50:48.514Z,10.20
2023-04-13T18:53:15.527Z,10.10
2023-04-13T18:55:50.486Z,10.00
2023-04-13T18:58:20.887Z,9.90
2023-04-13T19:00:48.359Z,9.90
2023-04-13T19:03:15.501Z,9.70
2023-04-13T19:05:42.502Z,9.70
2023-04-13T19:08:10.517Z,9.60
2023-04-13T19:10:37.401Z,9.50
2023-04-13T19:13:04.296Z,9.40
2023-04-13T19:15:31.483Z,9.30
2023-04-13T19:17:59.308Z,9.20
2023-04-13T19:20:26.382Z,9.10
2023-04-13T19:22:53.199Z,9.00
2023-04-13T19:25:20.352Z,8.90
2023-04-13T19:27:48.320Z,8.80
2023-04-13T19:30:16.708Z,8.70
2023-04-13T19:32:46.039Z,8.70
2023-04-13T19:35:13.902Z,8.60
2023-04-13T19:37:41.534Z,8.60
2023-04-13T19:40:09.845Z,8.50
2023-04-13T19:42:37.802Z,8.50
2023-04-13T19:45:05.049Z,8.50
2023-04-13T19:47:42.625Z,8.40
2023-04-13T19:50:12.367Z,8.30
2023-04-13T19:52:41.423Z,8.30
2023-04-13T19:55:10.990Z,8.20
2023-04-13T19:57:44.502Z,8.10
2023-04-13T20:00:20.447Z,8.10
2023-04-13T20:02:51.853Z,7.90
2023-04-13T20:05:21.778Z,7.80
2023-04-13T20:07:52.962Z,7.70
2023-04-13T20:10:32.478Z,7.60
2023-04-13T20:13:12.929Z,7.50
2023-04-13T20:15:40.195Z,7.50
2023-04-13T20:18:13.341Z,7.40
2023-04-13T20:20:42.332Z,7.40
2023-04-13T20:23:12.233Z,7.30
2023-04-13T20:25:39.133Z,7.30
2023-04-13T20:28:06.442Z,7.30
2023-04-13T20:30:33.264Z,7.30
2023-04-13T20:33:00.817Z,7.40
2023-04-13T20:35:28.902Z,7.40
2023-04-13T20:38:02.318Z,7.40
2023-04-13T20:40:29.348Z,7.40
2023-04-13T20:42:58.494Z,7.40
2023-04-13T20:45:32.183Z,7.40
2023-04-13T20:50:50.930Z,7.30
2023-04-13T20:53:19.486Z,7.20
2023-04-13T20:55:49.493Z,7.20
2023-04-13T20:58:17.088Z,7.10
2023-04-13T21:00:44.905Z,7.10
2023-04-13T21:03:13.098Z,7.00
2023-04-13T21:05:40.664Z,6.90
2023-04-13T21:08:11.432Z,6.80
2023-04-13T21:10:47.437Z,6.80
2023-04-13T21:13:18.391Z,6.80
2023-04-13T21:15:50.672Z,6.70
2023-04-13T21:18:20.666Z,6.70
2023-04-13T21:20:51.223Z,6.60
2023-04-13T21:23:18.216Z,6.50
2023-04-13T21:25:45.184Z,6.50
2023-04-13T21:28:12.129Z,6.40
2023-04-13T21:30:38.912Z,6.30
2023-04-13T21:33:06.092Z,6.30
2023-04-13T21:35:33.131Z,6.20
2023-04-13T21:38:00.078Z,6.10
2023-04-13T21:40:26.932Z,6.00
2023-04-13T21:42:53.901Z,6.00
2023-04-13T21:45:20.876Z,5.90
2023-04-13T21:47:50.727Z,5.90
2023-04-13T21:50:17.760Z,5.90
2023-04-13T21:52:47.048Z,5.80
2023-04-13T21:55:18.611Z,5.80
2023-04-13T21:57:46.732Z,5.80
2023-04-13T22:00:21.013Z,5.80
2023-04-13T22:02:49.308Z,5.80
2023-04-13T22:05:16.985Z,5.80
2023-04-13T22:07:45.816Z,5.80
2023-04-13T22:10:13.809Z,5.70
2023-04-13T22:12:40.930Z,5.70
2023-04-13T22:15:11.849Z,5.70
2023-04-13T22:17:41.229Z,5.60
2023-04-13T22:20:08.846Z,5.60
2023-04-13T22:22:36.285Z,5.60
2023-04-13T22:25:03.203Z,5.50
2023-04-13T22:27:30.088Z,5.50
2023-04-13T22:29:57.045Z,5.50
2023-04-13T22:32:24.240Z,5.50
2023-04-13T22:34:51.162Z,5.50
2023-04-13T22:37:19.901Z,5.40
2023-04-13T22:39:46.961Z,5.40
2023-04-13T22:42:13.824Z,5.40
2023-04-13T22:44:40.818Z,5.30
2023-04-13T22:47:07.749Z,5.30
2023-04-13T22:49:34.721Z,5.30
2023-04-13T22:52:01.631Z,5.20
2023-04-13T22:54:28.830Z,5.20
2023-04-13T22:56:56.037Z,5.10
2023-04-13T22:59:22.962Z,5.10
2023-04-13T23:01:50.027Z,5.10
2023-04-13T23:04:16.990Z,5.00
2023-04-13T23:06:43.880Z,5.00
2023-04-13T23:09:10.946Z,4.90
2023-04-13T23:11:38.145Z,4.80
2023-04-13T23:14:06.704Z,4.80
2023-04-13T23:16:34.233Z,4.70
2023-04-13T23:19:01.357Z,4.60
2023-04-13T23:21:29.069Z,4.60
2023-04-13T23:23:56.393Z,4.60
2023-04-13T23:26:23.246Z,4.50
2023-04-13T23:28:50.346Z,4.50
2023-04-13T23:31:17.266Z,4.50
2023-04-13T23:33:44.221Z,4.50
2023-04-13T23:36:11.778Z,4.50
2023-04-13T23:38:38.677Z,4.40
2023-04-13T23:41:05.599Z,4.40
2023-04-13T23:43:35.231Z,4.40
2023-04-13T23:46:02.214Z,4.40
2023-04-13T23:48:29.359Z,4.40
2023-04-13T23:50:57.312Z,4.40
2023-04-13T23:53:24.325Z,4.30
2023-04-13T23:55:51.228Z,4.20
2023-04-13T23:58:18.200Z,4.20
